(°C)
23°
23°
23°
21°
19°
18°
17°
(°C)
24°
24°
23°
22°
20°
18°
17°
G
G
G
G
GGB
GGB
GGB
(km/saat)
7-17
10-18
12-19
12-20
12-20
12-21
11-21
(mm)
0
0
0
0
0
0
0
(%)
2
1
1
1
0
0
0

Güneşin açısı

/ 49.1°
sun-icon
UV 4
05:14
20:00
Azalan ay (253°)
01:09
10:39

Barnstable (KHYA) için METAR

Zaman Koşullar Sıcaklık/
Çiy noktası
Rüzgar Görünürlük Hava Bulutlar Basınç Değiştir Ham
VFR 22.8°C / 18.3°C 210º 3kt >10km - Clear 1015 - KHYA 211856Z AUTO 21003KT 10SM CLR 23/18 A2999 RMK AO2 SLP156 T02280183
VFR 21.1°C / 17.2°C 180º 6kt >10km - Clear 1015 - KHYA 211756Z 18006KT 10SM CLR 21/17 A2999 RMK AO2 SLP157 60000 T02110172 10233 20156 58005
VFR 21.1°C / 17.2°C 190º 5kt >10km - Clear 1015 - KHYA 211656Z 19005KT 10SM CLR 21/17 A3000 RMK AO2 SLP159 T02110172
VFR 19.4°C / 16.7°C 220º 3kt >10km - Scattered Clouds 800ft 1016 - KHYA 211556Z 22003KT 10SM SCT008 19/17 A3001 RMK AO2 SLP163 T01940167
IFR 18.9°C / 16.7°C variable 0kt 8000m Mist Vertical Visibility of 0ft. - KHYA 211503Z 00000KT 5SM BR BKN006 19/17 A3001 RMK AO2 CIG 003V008 T01890167
LIFR 17.8°C / 16.1°C 240º variable 002º to 008º 3kt 1200m - Overcast 600ft 1016 - KHYA 211456Z 24003KT 3/4SM OVC006 18/16 A3001 RMK AO2 CIG 002V008 SLP162 60000 T01780161 51008
LIFR 16.1°C / 16.1°C 180º 4kt 800m Fog Vertical Visibility of 0ft. - KHYA 211421Z 18004KT 1/2SM FG VV002 16/16 A3001 RMK AO2 T01610161
LIFR 16.1°C / 15.6°C 170º 8kt 400m Fog Vertical Visibility of 0ft. 1015 - KHYA 211356Z 17008KT 1/4SM FG VV002 16/16 A3000 RMK AO2 SLP159 T01610156
LIFR 16.1°C / 16.1°C 190º 9kt 400m Fog Vertical Visibility of 0ft. - KHYA 211332Z 19009KT 1/4SM FG VV002 16/16 A3000 RMK AO2 T01610161
LIFR 16.7°C / 16.1°C 180º 6kt 800m Fog Vertical Visibility of 0ft. - KHYA 211322Z 18006KT 1/2SM FG VV002 17/16 A3000 RMK AO2 T01670161
LIFR 16.7°C / 16.1°C 190º 8kt 400m Fog Vertical Visibility of 0ft. - KHYA 211314Z 19008KT 1/4SM FG VV002 17/16 A3000 RMK AO2 T01670161
LIFR 16.7°C / 16.1°C 190º 6kt 800m Fog 0.13mm precipitation Vertical Visibility of 200ft. 1015 - KHYA 211256Z 19006KT 1/2SM FG VV002 17/16 A3000 RMK AO2 RAB02E15 SLP158 P0000 T01670161
LIFR 17.2°C / 16.1°C 190º 10kt Gust 15kt 800m Fog 0.13mm precipitation Vertical Visibility of 200ft. - KHYA 211221Z 19010G15KT 1/2SM FG VV002 17/16 A2999 RMK AO2 RAB02E15 P0000 T01720161
LIFR 17.2°C / 16.1°C 190º 10kt 1600m Light Rain Mist 0.13mm precipitation Overcast 300ft - KHYA 211208Z 19010KT 1SM -RA BR OVC003 17/16 A2998 RMK AO2 RAB02 P0000 T01720161
IFR 17.2°C / 16.1°C 190º 10kt 6400m Mist Vertical Visibility of 0ft. 1015 - KHYA 211156Z 19010KT 4SM BR OVC006 17/16 A2998 RMK AO2 SLP153 60027 70036 T01720161 10178 20144 53008
IFR 17.8°C / 16.1°C 190º 11kt Gust 19kt >10km - Broken Clouds 900ft
Broken Clouds 1100ft
Overcast 2500ft
- KHYA 211131Z 19011G19KT 8SM BKN009 BKN011 OVC025 18/16 A2997 RMK AO2 T01780161
LIFR 17.8°C / 16.7°C 190º 10kt Gust 18kt >10km - Broken Clouds 400ft
Overcast 2500ft
- KHYA 211113Z 19010G18KT 8SM BKN004 OVC025 18/17 A2997 RMK AO2 T01780167
MVFR 17.8°C / 16.7°C 190º 6kt >10km - Scattered Clouds 1400ft
Scattered Clouds 1900ft
Broken Clouds 2500ft
- KHYA 211103Z 19006KT 10SM SCT014 SCT019 BKN025 18/17 A2997 RMK AO2 T01780167
LIFR 17.2°C / 16.1°C 180º 6kt >10km - Broken Clouds 400ft
Overcast 2500ft
1014 - KHYA 211056Z 18006KT 9SM BKN004 OVC025 17/16 A2996 RMK AO2 SLP147 T01720161
LIFR 16.1°C / 15.6°C 180º 4kt 6400m Mist Vertical Visibility of 0ft. - KHYA 211009Z 18004KT 4SM BR OVC003 16/16 A2997 RMK AO2 T01610156
LIFR 15.6°C / 15°C 170º 8kt 2400m Mist Vertical Visibility of 0ft. 1014 - KHYA 210956Z 17008KT 1 1/2SM BR OVC002 16/15 A2997 RMK AO2 SLP149 T01560150
LIFR 16.7°C / 16.1°C 170º 10kt Gust 17kt >10km - Overcast 300ft 1014 - KHYA 210856Z AUTO 17010G17KT 7SM OVC003 17/16 A2996 RMK AO2 LTG DSNT SE SLP145 60027 T01670161 58023
LIFR 15°C / 14.4°C variable 5kt Gust 16kt 9700m Mist Vertical Visibility of 0ft.
Overcast 3700ft
- KHYA 210819Z AUTO VRB05G16KT 6SM BR BKN003 OVC037 15/14 A2998 RMK AO2 LTG DSNT SE T01500144
IFR 15.6°C / 14.4°C 150º 9kt Gust 16kt >10km - Broken Clouds 500ft
Broken Clouds 1700ft
Overcast 3700ft
- KHYA 210812Z AUTO 15009G16KT 7SM BKN005 BKN017 OVC037 16/14 A2998 RMK AO2 LTG DSNT SE AND S T01560144

VFR

22.8°C / 18.3°C

[Daha fazla]
Rüzgar 210º 3kt
Görünürlük >10km
Hava -
Bulutlar Clear
Basınç 1015
Değiştir -
Ham KHYA 211856Z AUTO 21003KT 10SM CLR 23/18 A2999 RMK AO2 SLP156 T02280183

VFR

21.1°C / 17.2°C

[Daha fazla]
Rüzgar 180º 6kt
Görünürlük >10km
Hava -
Bulutlar Clear
Basınç 1015
Değiştir -
Ham KHYA 211756Z 18006KT 10SM CLR 21/17 A2999 RMK AO2 SLP157 60000 T02110172 10233 20156 58005

VFR

21.1°C / 17.2°C

[Daha fazla]
Rüzgar 190º 5kt
Görünürlük >10km
Hava -
Bulutlar Clear
Basınç 1015
Değiştir -
Ham KHYA 211656Z 19005KT 10SM CLR 21/17 A3000 RMK AO2 SLP159 T02110172

VFR

19.4°C / 16.7°C

[Daha fazla]
Rüzgar 220º 3kt
Görünürlük >10km
Hava -
Bulutlar Scattered Clouds 800ft
Basınç 1016
Değiştir -
Ham KHYA 211556Z 22003KT 10SM SCT008 19/17 A3001 RMK AO2 SLP163 T01940167

IFR

18.9°C / 16.7°C

[Daha fazla]
Rüzgar variable 0kt
Görünürlük 8000m
Hava Mist
Bulutlar Vertical Visibility of 0ft.
Basınç
Değiştir -
Ham KHYA 211503Z 00000KT 5SM BR BKN006 19/17 A3001 RMK AO2 CIG 003V008 T01890167

LIFR

17.8°C / 16.1°C

[Daha fazla]
Rüzgar 240º variable 002º to 008º 3kt
Görünürlük 1200m
Hava -
Bulutlar Overcast 600ft
Basınç 1016
Değiştir -
Ham KHYA 211456Z 24003KT 3/4SM OVC006 18/16 A3001 RMK AO2 CIG 002V008 SLP162 60000 T01780161 51008

LIFR

16.1°C / 16.1°C

[Daha fazla]
Rüzgar 180º 4kt
Görünürlük 800m
Hava Fog
Bulutlar Vertical Visibility of 0ft.
Basınç
Değiştir -
Ham KHYA 211421Z 18004KT 1/2SM FG VV002 16/16 A3001 RMK AO2 T01610161

LIFR

16.1°C / 15.6°C

[Daha fazla]
Rüzgar 170º 8kt
Görünürlük 400m
Hava Fog
Bulutlar Vertical Visibility of 0ft.
Basınç 1015
Değiştir -
Ham KHYA 211356Z 17008KT 1/4SM FG VV002 16/16 A3000 RMK AO2 SLP159 T01610156

LIFR

16.1°C / 16.1°C

[Daha fazla]
Rüzgar 190º 9kt
Görünürlük 400m
Hava Fog
Bulutlar Vertical Visibility of 0ft.
Basınç
Değiştir -
Ham KHYA 211332Z 19009KT 1/4SM FG VV002 16/16 A3000 RMK AO2 T01610161

LIFR

16.7°C / 16.1°C

[Daha fazla]
Rüzgar 180º 6kt
Görünürlük 800m
Hava Fog
Bulutlar Vertical Visibility of 0ft.
Basınç
Değiştir -
Ham KHYA 211322Z 18006KT 1/2SM FG VV002 17/16 A3000 RMK AO2 T01670161

LIFR

16.7°C / 16.1°C

[Daha fazla]
Rüzgar 190º 8kt
Görünürlük 400m
Hava Fog
Bulutlar Vertical Visibility of 0ft.
Basınç
Değiştir -
Ham KHYA 211314Z 19008KT 1/4SM FG VV002 17/16 A3000 RMK AO2 T01670161

LIFR

16.7°C / 16.1°C

[Daha fazla]
Rüzgar 190º 6kt
Görünürlük 800m
Hava Fog 0.13mm precipitation
Bulutlar Vertical Visibility of 200ft.
Basınç 1015
Değiştir -
Ham KHYA 211256Z 19006KT 1/2SM FG VV002 17/16 A3000 RMK AO2 RAB02E15 SLP158 P0000 T01670161

LIFR

17.2°C / 16.1°C

[Daha fazla]
Rüzgar 190º 10kt Gust 15kt
Görünürlük 800m
Hava Fog 0.13mm precipitation
Bulutlar Vertical Visibility of 200ft.
Basınç
Değiştir -
Ham KHYA 211221Z 19010G15KT 1/2SM FG VV002 17/16 A2999 RMK AO2 RAB02E15 P0000 T01720161

LIFR

17.2°C / 16.1°C

[Daha fazla]
Rüzgar 190º 10kt
Görünürlük 1600m
Hava Light Rain Mist 0.13mm precipitation
Bulutlar Overcast 300ft
Basınç
Değiştir -
Ham KHYA 211208Z 19010KT 1SM -RA BR OVC003 17/16 A2998 RMK AO2 RAB02 P0000 T01720161

IFR

17.2°C / 16.1°C

[Daha fazla]
Rüzgar 190º 10kt
Görünürlük 6400m
Hava Mist
Bulutlar Vertical Visibility of 0ft.
Basınç 1015
Değiştir -
Ham KHYA 211156Z 19010KT 4SM BR OVC006 17/16 A2998 RMK AO2 SLP153 60027 70036 T01720161 10178 20144 53008

IFR

17.8°C / 16.1°C

[Daha fazla]
Rüzgar 190º 11kt Gust 19kt
Görünürlük >10km
Hava -
Bulutlar Broken Clouds 900ft
Broken Clouds 1100ft
Overcast 2500ft
Basınç
Değiştir -
Ham KHYA 211131Z 19011G19KT 8SM BKN009 BKN011 OVC025 18/16 A2997 RMK AO2 T01780161

LIFR

17.8°C / 16.7°C

[Daha fazla]
Rüzgar 190º 10kt Gust 18kt
Görünürlük >10km
Hava -
Bulutlar Broken Clouds 400ft
Overcast 2500ft
Basınç
Değiştir -
Ham KHYA 211113Z 19010G18KT 8SM BKN004 OVC025 18/17 A2997 RMK AO2 T01780167

MVFR

17.8°C / 16.7°C

[Daha fazla]
Rüzgar 190º 6kt
Görünürlük >10km
Hava -
Bulutlar Scattered Clouds 1400ft
Scattered Clouds 1900ft
Broken Clouds 2500ft
Basınç
Değiştir -
Ham KHYA 211103Z 19006KT 10SM SCT014 SCT019 BKN025 18/17 A2997 RMK AO2 T01780167

LIFR

17.2°C / 16.1°C

[Daha fazla]
Rüzgar 180º 6kt
Görünürlük >10km
Hava -
Bulutlar Broken Clouds 400ft
Overcast 2500ft
Basınç 1014
Değiştir -
Ham KHYA 211056Z 18006KT 9SM BKN004 OVC025 17/16 A2996 RMK AO2 SLP147 T01720161

LIFR

16.1°C / 15.6°C

[Daha fazla]
Rüzgar 180º 4kt
Görünürlük 6400m
Hava Mist
Bulutlar Vertical Visibility of 0ft.
Basınç
Değiştir -
Ham KHYA 211009Z 18004KT 4SM BR OVC003 16/16 A2997 RMK AO2 T01610156

LIFR

15.6°C / 15°C

[Daha fazla]
Rüzgar 170º 8kt
Görünürlük 2400m
Hava Mist
Bulutlar Vertical Visibility of 0ft.
Basınç 1014
Değiştir -
Ham KHYA 210956Z 17008KT 1 1/2SM BR OVC002 16/15 A2997 RMK AO2 SLP149 T01560150

LIFR

16.7°C / 16.1°C

[Daha fazla]
Rüzgar 170º 10kt Gust 17kt
Görünürlük >10km
Hava -
Bulutlar Overcast 300ft
Basınç 1014
Değiştir -
Ham KHYA 210856Z AUTO 17010G17KT 7SM OVC003 17/16 A2996 RMK AO2 LTG DSNT SE SLP145 60027 T01670161 58023

LIFR

15°C / 14.4°C

[Daha fazla]
Rüzgar variable 5kt Gust 16kt
Görünürlük 9700m
Hava Mist
Bulutlar Vertical Visibility of 0ft.
Overcast 3700ft
Basınç
Değiştir -
Ham KHYA 210819Z AUTO VRB05G16KT 6SM BR BKN003 OVC037 15/14 A2998 RMK AO2 LTG DSNT SE T01500144

IFR

15.6°C / 14.4°C

[Daha fazla]
Rüzgar 150º 9kt Gust 16kt
Görünürlük >10km
Hava -
Bulutlar Broken Clouds 500ft
Broken Clouds 1700ft
Overcast 3700ft
Basınç
Değiştir -
Ham KHYA 210812Z AUTO 15009G16KT 7SM BKN005 BKN017 OVC037 16/14 A2998 RMK AO2 LTG DSNT SE AND S T01560144

Barnstable (KHYA) için TAF

From till


From till Wind 200º 5kt. Visibility 10km or more. Scattered Clouds 25000ft.
From till Wind 200º 7kt. Visibility 9700m. Mist . Scattered Clouds 800ft.
From till Wind 210º 7kt. Visibility 4800m. Mist . Broken Clouds 800ft.
From till Wind 220º 7kt. Visibility 4800m. Mist . Scattered Clouds 800ft.
From till Wind 220º 10kt. Gust 18kt. Visibility 10km or more. Scattered Clouds 25000ft.

Ham: KHYA 211735Z 2118/2218 20005KT P6SM SCT250 FM212200 20007KT 6SM BR SCT008 FM220000 21007KT 3SM BR BKN008 FM220800 22007KT 3SM BR SCT008 FM221200 22010G18KT P6SM SCT250

Barnstable için radar ve yağış nowcast

Çise
Hafif
Orta
Ağır
Çok ağır
Dolu

Konum işaretleyicisi Barnstable üzerine yerleştirilir. Bu animasyon son saat içerisindeki yağış radarını ve 1h tahminini gösterir. Hafif yağmur veya kar yağışı radar için görünmez olabilir. Yağış şiddeti açık mavi ile koyu mor arasındaki renklerle kodlanmıştır.

Barnstable için şu anki uydu görüntüleri, ABD

Konum işaretleyici Barnstable üzerine yerleştirilir. [Daha fazla]

Gerçek zamanlı uydu görüntüsü gündüz süresince görülür ışığı gece süresince kızılötesi ışınım ile birleştirir. Gece kızılötesi ışınım sıcaklık farklarını algılayabildiğinden dolayı görüntü karanlık değildir. Ancak düşük bulutları ve sisi yer sıcaklığından ayırmak zordur ve bu nedenle gece boyunca neredeyse görünmez olabilirler. Avrupa için Meteosat uydu görüntüleri gerçek zamanlı olarak her 5 dakikada bir güncellenir. GOES-16/GOES-17 (Kuzey ve Güney Amerika) ve Himawari (Asya) görüntüleri her 10 dakikada bir güncellenir.

En başa git